CMB825 Details

Departure: Grantley Adams International Airport (TBPB)
Arrival: RAF Ascension Island (FHAW)
Route: BGI ROVBA ASALI UL695 EGIMI UL695 FHAW
Notes: USTRANSCOM CONTRACT FLIGHT | PAYLOAD RESTRICTED | ETOPS


Current Weather Information
TBPB 181600Z 10017KT 9999 BKN018 BKN036 29/20 Q1016 NOSIG
FHAW 180550Z 13011KT 9999 FEW015 27/23 Q1011 BLU NOSIG